Time,TemperatureF,DewpointF,PressureIn,WindDirection,WindDirectionDegrees,WindSpeedMPH,WindSpeedGustMPH,Humidity,HourlyPrecipIn,Conditions,Clouds,dailyrainin,SoftwareType,DateUTC
2013-04-26 00:01:00,44.0,13.0,-100.00,SW,233,17.0,24.0,28,0.00,,,-99.99,,2013-04-26 00:01:00,
2013-04-26 00:11:00,44.0,12.0,-100.00,SW,233,17.0,24.0,27,0.00,,,-99.99,,2013-04-26 00:11:00,
2013-04-26 00:21:00,43.0,10.0,-100.00,SW,233,19.0,26.0,25,0.00,,,-99.99,,2013-04-26 00:21:00,
2013-04-26 00:31:00,44.0,11.0,-100.00,SW,234,17.0,24.0,26,0.00,,,-99.99,,2013-04-26 00:31:00,
2013-04-26 00:41:00,44.0,12.0,-100.00,SW,233,18.0,26.0,27,0.00,,,-99.99,,2013-04-26 00:41:00,
2013-04-26 00:51:00,44.0,14.0,-100.00,SW,234,16.0,23.0,30,0.00,,,-99.99,,2013-04-26 00:51:00,
2013-04-26 01:01:00,43.0,12.0,-100.00,SW,233,14.0,21.0,27,0.00,,,-99.99,,2013-04-26 01:01:00,
2013-04-26 01:11:00,42.0,14.0,-100.00,SW,233,14.0,20.0,31,0.00,,,-99.99,,2013-04-26 01:11:00,
2013-04-26 01:21:00,41.0,13.0,-100.00,SW,234,12.0,16.0,31,0.00,,,-99.99,,2013-04-26 01:21:00,
2013-04-26 01:31:00,41.0,13.0,-100.00,SW,233,11.0,14.0,31,0.00,,,-99.99,,2013-04-26 01:31:00,
2013-04-26 01:41:00,40.0,15.0,-100.00,SW,233,9.0,12.0,35,0.00,,,-99.99,,2013-04-26 01:41:00,
2013-04-26 01:52:00,40.0,14.0,-100.00,SW,233,10.0,14.0,33,0.00,,,-99.99,,2013-04-26 01:52:00,
2013-04-26 02:01:00,40.0,13.0,-100.00,SW,233,9.0,13.0,34,0.00,,,-99.99,,2013-04-26 02:01:00,
2013-04-26 02:11:00,40.0,15.0,-100.00,SW,233,10.0,12.0,35,0.00,,,-99.99,,2013-04-26 02:11:00,
2013-04-26 02:21:00,39.0,13.0,-100.00,SW,233,11.0,15.0,34,0.00,,,-99.99,,2013-04-26 02:21:00,
2013-04-26 02:32:00,39.0,13.0,-100.00,SW,233,11.0,13.0,33,0.00,,,-99.99,,2013-04-26 02:32:00,
2013-04-26 02:42:00,39.0,13.0,-100.00,SW,233,11.0,14.0,33,0.00,,,-99.99,,2013-04-26 02:42:00,
2013-04-26 02:51:00,40.0,13.0,-100.00,SW,233,11.0,14.0,33,0.00,,,-99.99,,2013-04-26 02:51:00,
2013-04-26 03:01:00,39.0,12.0,-100.00,SW,233,10.0,14.0,33,0.00,,,-99.99,,2013-04-26 03:01:00,
2013-04-26 03:11:00,39.0,12.0,-100.00,SW,233,10.0,13.0,32,0.00,,,-99.99,,2013-04-26 03:11:00,
2013-04-26 03:21:00,40.0,11.0,-100.00,SW,233,10.0,15.0,31,0.00,,,-99.99,,2013-04-26 03:21:00,
2013-04-26 03:33:00,39.0,12.0,-100.00,SW,234,8.0,14.0,32,0.00,,,-99.99,,2013-04-26 03:33:00,
2013-04-26 03:43:00,38.0,12.0,-100.00,SW,234,6.0,10.0,33,0.00,,,-99.99,,2013-04-26 03:43:00,
2013-04-26 03:53:00,39.0,11.0,-100.00,SW,234,7.0,9.0,32,0.00,,,-99.99,,2013-04-26 03:53:00,
2013-04-26 04:02:00,38.0,11.0,-100.00,SW,233,7.0,10.0,32,0.00,,,-99.99,,2013-04-26 04:02:00,
2013-04-26 04:12:00,38.0,11.0,-100.00,SW,233,7.0,9.0,32,0.00,,,-99.99,,2013-04-26 04:12:00,
2013-04-26 04:22:00,39.0,11.0,-100.00,SW,233,9.0,12.0,31,0.00,,,-99.99,,2013-04-26 04:22:00,
2013-04-26 04:32:00,39.0,11.0,-100.00,SW,233,7.0,10.0,31,0.00,,,-99.99,,2013-04-26 04:32:00,
2013-04-26 04:43:00,38.0,11.0,-100.00,SW,233,7.0,9.0,32,0.00,,,-99.99,,2013-04-26 04:43:00,
2013-04-26 04:52:00,38.0,11.0,-100.00,SW,233,9.0,10.0,32,0.00,,,-99.99,,2013-04-26 04:52:00,
2013-04-26 05:02:00,38.0,11.0,-100.00,SW,233,9.0,10.0,31,0.00,,,-99.99,,2013-04-26 05:02:00,
2013-04-26 05:12:00,38.0,10.0,-100.00,SW,233,7.0,9.0,32,0.00,,,-99.99,,2013-04-26 05:12:00,
2013-04-26 05:22:00,38.0,11.0,-100.00,SW,233,6.0,7.0,31,0.00,,,-99.99,,2013-04-26 05:22:00,
2013-04-26 05:32:00,38.0,11.0,-100.00,SW,234,6.0,7.0,31,0.00,,,-99.99,,2013-04-26 05:32:00,
2013-04-26 05:42:00,38.0,11.0,-100.00,SW,233,6.0,7.0,32,0.00,,,-99.99,,2013-04-26 05:42:00,
2013-04-26 05:52:00,36.0,11.0,-100.00,SW,233,6.0,7.0,35,0.00,,,-99.99,,2013-04-26 05:52:00,
2013-04-26 06:02:00,37.0,12.0,-100.00,SW,233,6.0,6.0,35,0.00,,,-99.99,,2013-04-26 06:02:00,
2013-04-26 06:11:00,37.0,12.0,-100.00,SW,233,5.0,6.0,36,0.00,,,-99.99,,2013-04-26 06:11:00,
2013-04-26 06:21:00,36.0,12.0,-100.00,SW,233,3.0,4.0,36,0.00,,,-99.99,,2013-04-26 06:21:00,
2013-04-26 06:32:00,36.0,12.0,-100.00,SW,233,5.0,6.0,37,0.00,,,-99.99,,2013-04-26 06:32:00,
2013-04-26 06:41:00,36.0,11.0,-100.00,SW,234,6.0,7.0,36,0.00,,,-99.99,,2013-04-26 06:41:00,
2013-04-26 06:51:00,37.0,11.0,-100.00,SW,233,6.0,7.0,34,0.00,,,-99.99,,2013-04-26 06:51:00,
2013-04-26 07:01:00,36.0,11.0,-100.00,SW,233,6.0,8.0,36,0.00,,,-99.99,,2013-04-26 07:01:00,
2013-04-26 07:11:00,35.0,13.0,-100.00,SW,233,7.0,9.0,40,0.00,,,-99.99,,2013-04-26 07:11:00,
2013-04-26 07:22:00,34.0,13.0,-100.00,SW,233,7.0,8.0,42,0.00,,,-99.99,,2013-04-26 07:22:00,
2013-04-26 07:31:00,36.0,13.0,-100.00,SW,233,7.0,10.0,38,0.00,,,-99.99,,2013-04-26 07:31:00,
2013-04-26 07:42:00,36.0,13.0,-100.00,SW,233,8.0,9.0,38,0.00,,,-99.99,,2013-04-26 07:42:00,
2013-04-26 07:52:00,35.0,13.0,-100.00,SW,233,7.0,9.0,41,0.00,,,-99.99,,2013-04-26 07:52:00,
2013-04-26 08:02:00,35.0,12.0,-100.00,SW,233,7.0,8.0,38,0.00,,,-99.99,,2013-04-26 08:02:00,
2013-04-26 08:11:00,36.0,12.0,-100.00,SW,233,7.0,8.0,37,0.00,,,-99.99,,2013-04-26 08:11:00,
2013-04-26 08:21:00,35.0,10.0,-100.00,SW,233,6.0,7.0,36,0.00,,,-99.99,,2013-04-26 08:21:00,
2013-04-26 08:31:00,34.0,9.0,-100.00,SW,234,6.0,6.0,36,0.00,,,-99.99,,2013-04-26 08:31:00,
2013-04-26 08:42:00,35.0,9.0,-100.00,SW,233,6.0,7.0,34,0.00,,,-99.99,,2013-04-26 08:42:00,
2013-04-26 08:51:00,36.0,10.0,-100.00,SW,233,6.0,9.0,33,0.00,,,-99.99,,2013-04-26 08:51:00,
2013-04-26 09:01:00,36.0,9.0,-100.00,SW,233,6.0,9.0,32,0.00,,,-99.99,,2013-04-26 09:01:00,
2013-04-26 09:11:00,36.0,10.0,-100.00,SW,233,6.0,8.0,33,0.00,,,-99.99,,2013-04-26 09:11:00,
2013-04-26 09:21:00,34.0,10.0,-100.00,SW,233,6.0,7.0,37,0.00,,,-99.99,,2013-04-26 09:21:00,
2013-04-26 09:33:00,35.0,8.0,-100.00,SW,233,4.0,6.0,32,0.00,,,-99.99,,2013-04-26 09:33:00,
2013-04-26 09:42:00,35.0,8.0,-100.00,SW,233,6.0,8.0,33,0.00,,,-99.99,,2013-04-26 09:42:00,
2013-04-26 09:53:00,33.0,8.0,-100.00,SW,233,6.0,9.0,35,0.00,,,-99.99,,2013-04-26 09:53:00,
2013-04-26 10:03:00,34.0,7.0,-100.00,SW,233,4.0,7.0,33,0.00,,,-99.99,,2013-04-26 10:03:00,
2013-04-26 10:12:00,34.0,7.0,-100.00,SW,233,5.0,6.0,32,0.00,,,-99.99,,2013-04-26 10:12:00,
2013-04-26 10:23:00,35.0,6.0,-100.00,SW,233,4.0,6.0,30,0.00,,,-99.99,,2013-04-26 10:23:00,
2013-04-26 10:33:00,34.0,7.0,-100.00,SW,233,6.0,7.0,32,0.00,,,-99.99,,2013-04-26 10:33:00,
2013-04-26 10:42:00,33.0,9.0,-100.00,SW,234,7.0,9.0,35,0.00,,,-99.99,,2013-04-26 10:42:00,
2013-04-26 10:52:00,33.0,8.0,-100.00,SW,233,7.0,9.0,35,0.00,,,-99.99,,2013-04-26 10:52:00,
2013-04-26 11:02:00,33.0,8.0,-100.00,SW,233,6.0,9.0,35,0.00,,,-99.99,,2013-04-26 11:02:00,
2013-04-26 11:11:00,33.0,8.0,-100.00,SW,234,6.0,9.0,35,0.00,,,-99.99,,2013-04-26 11:11:00,
2013-04-26 11:22:00,33.0,8.0,-100.00,SW,233,6.0,7.0,34,0.00,,,-99.99,,2013-04-26 11:22:00,
2013-04-26 11:32:00,33.0,8.0,-100.00,SW,233,6.0,9.0,34,0.00,,,-99.99,,2013-04-26 11:32:00,
2013-04-26 11:41:00,33.0,8.0,-100.00,SW,233,7.0,9.0,34,0.00,,,-99.99,,2013-04-26 11:41:00,
2013-04-26 11:52:00,33.0,8.0,-100.00,SW,233,7.0,9.0,34,0.00,,,-99.99,,2013-04-26 11:52:00,
2013-04-26 12:01:00,34.0,8.0,-100.00,SW,233,7.0,8.0,32,0.00,,,-99.99,,2013-04-26 12:01:00,
2013-04-26 12:11:00,35.0,7.0,-100.00,SW,233,6.0,9.0,31,0.00,,,-99.99,,2013-04-26 12:11:00,
2013-04-26 12:21:00,35.0,7.0,-100.00,SW,234,6.0,7.0,31,0.00,,,-99.99,,2013-04-26 12:21:00,
2013-04-26 12:32:00,32.0,7.0,-100.00,SW,233,6.0,8.0,35,0.00,,,-99.99,,2013-04-26 12:32:00,
2013-04-26 12:41:00,34.0,8.0,-100.00,SW,233,6.0,8.0,34,0.00,,,-99.99,,2013-04-26 12:41:00,
2013-04-26 12:52:00,34.0,9.0,-100.00,SW,233,7.0,9.0,34,0.00,,,-99.99,,2013-04-26 12:52:00,
2013-04-26 13:01:00,35.0,8.0,-100.00,SW,234,6.0,8.0,32,0.00,,,-99.99,,2013-04-26 13:01:00,
2013-04-26 13:11:00,36.0,8.0,-100.00,SW,234,6.0,7.0,31,0.00,,,-99.99,,2013-04-26 13:11:00,
2013-04-26 13:21:00,36.0,8.0,-100.00,SW,233,4.0,7.0,31,0.00,,,-99.99,,2013-04-26 13:21:00,
2013-04-26 13:31:00,37.0,9.0,-100.00,SW,233,4.0,6.0,31,0.00,,,-99.99,,2013-04-26 13:31:00,
2013-04-26 13:41:00,37.0,9.0,-100.00,SW,233,4.0,6.0,30,0.00,,,-99.99,,2013-04-26 13:41:00,
2013-04-26 13:52:00,38.0,8.0,-100.00,SW,233,4.0,6.0,29,0.00,,,-99.99,,2013-04-26 13:52:00,
2013-04-26 14:01:00,39.0,8.0,-100.00,SW,233,4.0,6.0,27,0.00,,,-99.99,,2013-04-26 14:01:00,
2013-04-26 14:11:00,38.0,9.0,-100.00,SW,233,4.0,7.0,29,0.00,,,-99.99,,2013-04-26 14:11:00,
2013-04-26 14:21:00,39.0,12.0,-100.00,SW,233,4.0,7.0,32,0.00,,,-99.99,,2013-04-26 14:21:00,
2013-04-26 14:32:00,39.0,9.0,-100.00,SW,234,4.0,6.0,29,0.00,,,-99.99,,2013-04-26 14:32:00,
2013-04-26 14:51:00,39.0,13.0,-100.00,SW,233,5.0,7.0,34,0.00,,,-99.99,,2013-04-26 14:51:00,
2013-04-26 15:01:00,39.0,11.0,-100.00,SW,234,4.0,6.0,31,0.00,,,-99.99,,2013-04-26 15:01:00,
2013-04-26 15:12:00,39.0,12.0,-100.00,SW,233,4.0,6.0,33,0.00,,,-99.99,,2013-04-26 15:12:00,
2013-04-26 15:21:00,39.0,10.0,-100.00,SW,233,6.0,7.0,29,0.00,,,-99.99,,2013-04-26 15:21:00,
2013-04-26 15:33:00,40.0,12.0,-100.00,SW,233,5.0,7.0,32,0.00,,,-99.99,,2013-04-26 15:33:00,
2013-04-26 15:42:00,40.0,13.0,-100.00,SW,233,6.0,7.0,32,0.00,,,-99.99,,2013-04-26 15:42:00,
2013-04-26 15:53:00,40.0,13.0,-100.00,SW,233,6.0,9.0,33,0.00,,,-99.99,,2013-04-26 15:53:00,
2013-04-26 16:03:00,40.0,11.0,-100.00,SW,233,6.0,10.0,29,0.00,,,-99.99,,2013-04-26 16:03:00,
2013-04-26 16:12:00,40.0,11.0,-100.00,SW,233,6.0,10.0,29,0.00,,,-99.99,,2013-04-26 16:12:00,
2013-04-26 16:23:00,41.0,13.0,-100.00,SW,233,6.0,9.0,31,0.00,,,-99.99,,2013-04-26 16:23:00,
2013-04-26 16:33:00,42.0,11.0,-100.00,SW,233,6.0,9.0,28,0.00,,,-99.99,,2013-04-26 16:33:00,
2013-04-26 16:42:00,42.0,10.0,-100.00,SW,233,6.0,9.0,27,0.00,,,-99.99,,2013-04-26 16:42:00,
2013-04-26 16:52:00,42.0,12.0,-100.00,SW,233,6.0,9.0,29,0.00,,,-99.99,,2013-04-26 16:52:00,
2013-04-26 17:02:00,43.0,13.0,-100.00,SW,233,5.0,9.0,29,0.00,,,-99.99,,2013-04-26 17:02:00,
2013-04-26 17:12:00,43.0,15.0,-100.00,SW,233,5.0,12.0,32,0.00,,,-99.99,,2013-04-26 17:12:00,
2013-04-26 17:21:00,43.0,10.0,-100.00,SW,233,5.0,9.0,25,0.00,,,-99.99,,2013-04-26 17:21:00,
2013-04-26 17:31:00,44.0,9.0,-100.00,SW,234,4.0,7.0,24,0.00,,,-99.99,,2013-04-26 17:31:00,
2013-04-26 17:41:00,44.0,12.0,-100.00,SW,233,3.0,7.0,26,0.00,,,-99.99,,2013-04-26 17:41:00,
2013-04-26 17:51:00,46.0,11.0,-100.00,SW,233,4.0,11.0,25,0.00,,,-99.99,,2013-04-26 17:51:00,
2013-04-26 18:02:00,47.0,11.0,-100.00,SW,233,2.0,7.0,22,0.00,,,-99.99,,2013-04-26 18:02:00,
2013-04-26 18:11:00,45.0,11.0,-100.00,SW,233,4.0,12.0,24,0.00,,,-99.99,,2013-04-26 18:11:00,
2013-04-26 18:22:00,45.0,10.0,-100.00,SW,233,4.0,9.0,23,0.00,,,-99.99,,2013-04-26 18:22:00,
2013-04-26 18:33:00,46.0,11.0,-100.00,SW,234,4.0,7.0,24,0.00,,,-99.99,,2013-04-26 18:33:00,
2013-04-26 18:41:00,46.0,12.0,-100.00,SW,234,3.0,7.0,25,0.00,,,-99.99,,2013-04-26 18:41:00,
2013-04-26 18:52:00,45.0,8.0,-100.00,SW,233,6.0,9.0,21,0.00,,,-99.99,,2013-04-26 18:52:00,
2013-04-26 19:01:00,46.0,6.0,-100.00,SW,233,4.0,7.0,19,0.00,,,-99.99,,2013-04-26 19:01:00,
2013-04-26 19:11:00,46.0,5.0,-100.00,SW,233,2.0,6.0,19,0.00,,,-99.99,,2013-04-26 19:11:00,
2013-04-26 19:22:00,46.0,12.0,-100.00,SW,233,4.0,9.0,25,0.00,,,-99.99,,2013-04-26 19:22:00,
2013-04-26 19:31:00,46.0,7.0,-100.00,SW,233,4.0,9.0,20,0.00,,,-99.99,,2013-04-26 19:31:00,
2013-04-26 19:41:00,46.0,10.0,-100.00,SW,233,3.0,9.0,23,0.00,,,-99.99,,2013-04-26 19:41:00,
2013-04-26 19:52:00,45.0,8.0,-100.00,SW,233,4.0,7.0,21,0.00,,,-99.99,,2013-04-26 19:52:00,
2013-04-26 20:02:00,46.0,7.0,-100.00,SW,233,4.0,10.0,19,0.00,,,-99.99,,2013-04-26 20:02:00,
2013-04-26 20:11:00,48.0,8.0,-100.00,SW,233,4.0,7.0,20,0.00,,,-99.99,,2013-04-26 20:11:00,
2013-04-26 20:21:00,49.0,8.0,-100.00,SW,233,2.0,6.0,18,0.00,,,-99.99,,2013-04-26 20:21:00,
2013-04-26 20:32:00,48.0,8.0,-100.00,SW,233,3.0,6.0,20,0.00,,,-99.99,,2013-04-26 20:32:00,
2013-04-26 20:42:00,48.0,15.0,-100.00,SW,233,3.0,6.0,26,0.00,,,-99.99,,2013-04-26 20:42:00,
2013-04-26 20:51:00,49.0,13.0,-100.00,SW,233,2.0,6.0,23,0.00,,,-99.99,,2013-04-26 20:51:00,
2013-04-26 21:01:00,47.0,8.0,-100.00,SW,233,4.0,9.0,20,0.00,,,-99.99,,2013-04-26 21:01:00,
2013-04-26 21:11:00,47.0,10.0,-100.00,SW,233,5.0,8.0,22,0.00,,,-99.99,,2013-04-26 21:11:00,
2013-04-26 21:21:00,48.0,9.0,-100.00,SW,233,4.0,7.0,20,0.00,,,-99.99,,2013-04-26 21:21:00,
2013-04-26 21:32:00,48.0,9.0,-100.00,SW,233,6.0,9.0,20,0.00,,,-99.99,,2013-04-26 21:32:00,
2013-04-26 21:42:00,48.0,9.0,-100.00,SW,233,3.0,7.0,20,0.00,,,-99.99,,2013-04-26 21:42:00,
2013-04-26 21:52:00,47.0,9.0,-100.00,SW,233,6.0,11.0,21,0.00,,,-99.99,,2013-04-26 21:52:00,
2013-04-26 22:02:00,48.0,9.0,-100.00,SW,233,6.0,10.0,20,0.00,,,-99.99,,2013-04-26 22:02:00,
2013-04-26 22:12:00,50.0,11.0,-100.00,SW,233,4.0,7.0,20,0.00,,,-99.99,,2013-04-26 22:12:00,
2013-04-26 22:23:00,48.0,17.0,-100.00,SW,233,7.0,12.0,28,0.00,,,-99.99,,2013-04-26 22:23:00,
2013-04-26 22:33:00,49.0,13.0,-100.00,SW,233,10.0,17.0,23,0.00,,,-99.99,,2013-04-26 22:33:00,
2013-04-26 22:42:00,49.0,14.0,-100.00,SW,234,10.0,16.0,24,0.00,,,-99.99,,2013-04-26 22:42:00,
2013-04-26 22:52:00,47.0,14.0,-100.00,SW,233,9.0,16.0,26,0.00,,,-99.99,,2013-04-26 22:52:00,
2013-04-26 23:02:00,48.0,16.0,-100.00,SW,233,6.0,12.0,27,0.00,,,-99.99,,2013-04-26 23:02:00,
2013-04-26 23:11:00,48.0,17.0,-100.00,SW,233,6.0,10.0,28,0.00,,,-99.99,,2013-04-26 23:11:00,
2013-04-26 23:21:00,48.0,15.0,-100.00,SW,233,6.0,10.0,26,0.00,,,-99.99,,2013-04-26 23:21:00,
2013-04-26 23:32:00,49.0,14.0,-100.00,SW,233,7.0,14.0,24,0.00,,,-99.99,,2013-04-26 23:32:00,
2013-04-26 23:42:00,48.0,14.0,-100.00,SW,233,10.0,16.0,25,0.00,,,-99.99,,2013-04-26 23:42:00,
2013-04-26 23:52:00,48.0,14.0,-100.00,SW,233,9.0,14.0,25,0.00,,,-99.99,,2013-04-26 23:52:00,